Time;durP1;ratioP1;P1;durP2;ratioP2;P2;SDS_P1;SDS_P2;PMS_P1;PMS_P2;Temp;Humidity;BMP_temperature;BMP_pressure;BME280_temperature;BME280_humidity;BME280_pressure;Samples;Min_cycle;Max_cycle;Signal;HPM_P1;HPM_P2
2021/09/25 00:00:27;;;;;;;3.07;1.93;;;18.80;71.00;;;;;;4978218;28;20199;-90
2021/09/25 00:02:55;;;;;;;2.30;1.80;;;18.80;71.10;;;;;;4978043;28;20197;-89
2021/09/25 00:05:21;;;;;;;2.50;1.80;;;18.80;71.30;;;;;;4984261;28;20195;-91
2021/09/25 00:07:47;;;;;;;2.38;1.73;;;18.80;71.10;;;;;;4974764;28;20186;-91
2021/09/25 00:10:14;;;;;;;3.73;1.53;;;18.80;71.30;;;;;;4975307;28;20188;-90
2021/09/25 00:12:40;;;;;;;1.80;1.30;;;18.80;71.20;;;;;;4973978;28;20211;-91
2021/09/25 00:15:05;;;;;;;2.80;1.70;;;18.80;71.20;;;;;;4974556;28;20195;-91
2021/09/25 00:17:31;;;;;;;1.70;1.60;;;18.90;70.90;;;;;;4973766;28;20419;-91
2021/09/25 00:19:57;;;;;;;2.90;1.87;;;18.90;71.00;;;;;;4974102;28;20438;-91
2021/09/25 00:22:22;;;;;;;3.07;1.70;;;18.80;71.10;;;;;;4952146;28;20212;-91
2021/09/25 00:24:48;;;;;;;4.50;1.97;;;18.80;71.50;;;;;;4954320;28;20204;-91
2021/09/25 00:27:14;;;;;;;3.43;1.73;;;18.90;71.20;;;;;;4955053;28;20711;-91
2021/09/25 00:29:39;;;;;;;3.63;2.07;;;18.90;71.10;;;;;;4953993;28;20591;-91
2021/09/25 00:32:06;;;;;;;2.00;1.80;;;18.80;71.40;;;;;;4955041;28;20203;-91
2021/09/25 00:34:31;;;;;;;2.10;1.90;;;18.80;71.60;;;;;;4954183;28;20577;-91
2021/09/25 00:36:57;;;;;;;2.70;1.80;;;18.80;71.70;;;;;;4968203;28;20180;-91
2021/09/25 00:39:23;;;;;;;2.40;1.37;;;18.80;71.80;;;;;;4974467;28;20234;-91
2021/09/25 00:41:48;;;;;;;1.90;1.80;;;18.90;71.50;;;;;;4973345;28;20187;-91
2021/09/25 00:44:23;;;;;;;2.67;2.10;;;18.80;71.70;;;;;;4975109;28;20279;-90
2021/09/25 00:46:49;;;;;;;3.15;1.65;;;18.80;71.90;;;;;;4973382;28;20531;-91
2021/09/25 00:49:22;;;;;;;2.30;2.10;;;18.80;72.30;;;;;;4973570;28;20190;-90
2021/09/25 00:51:49;;;;;;;5.20;2.03;;;18.90;71.90;;;;;;4974672;28;20180;-92
2021/09/25 00:54:16;;;;;;;2.67;2.42;;;18.80;72.00;;;;;;4973791;28;20207;-92
2021/09/25 00:56:47;;;;;;;3.20;1.85;;;19.00;71.90;;;;;;4958411;28;20268;-92
2021/09/25 00:59:15;;;;;;;4.55;1.75;;;19.00;71.20;;;;;;4974128;28;20191;-92
2021/09/25 01:01:41;;;;;;;5.22;1.98;;;18.90;71.50;;;;;;4974099;28;20183;-92
2021/09/25 01:04:08;;;;;;;2.08;1.45;;;19.00;71.40;;;;;;4974704;28;20218;-92
2021/09/25 01:06:34;;;;;;;4.13;2.33;;;18.90;71.50;;;;;;4974141;28;20326;-92
2021/09/25 01:09:00;;;;;;;1.75;1.63;;;18.80;71.90;;;;;;4973931;28;20184;-92
2021/09/25 01:11:26;;;;;;;2.88;1.85;;;18.70;72.20;;;;;;4973047;28;20644;-90
2021/09/25 01:13:53;;;;;;;2.35;2.15;;;18.70;72.70;;;;;;4973185;28;20307;-91
2021/09/25 01:16:20;;;;;;;4.63;3.30;;;18.50;73.00;;;;;;4976405;28;20188;-91
2021/09/25 01:18:46;;;;;;;3.85;1.75;;;18.60;73.20;;;;;;4973058;28;20191;-91
2021/09/25 01:21:12;;;;;;;5.50;2.43;;;18.50;73.40;;;;;;4974968;28;20184;-90
2021/09/25 01:23:38;;;;;;;1.70;1.60;;;18.50;73.50;;;;;;4959831;28;20754;-91
2021/09/25 01:26:04;;;;;;;3.58;2.10;;;18.40;73.70;;;;;;4960317;28;20530;-92
2021/09/25 01:28:32;;;;;;;3.70;1.73;;;18.50;73.80;;;;;;4958321;28;20176;-92
2021/09/25 01:30:58;;;;;;;4.47;2.20;;;18.60;73.50;;;;;;4943220;29;20211;-92
2021/09/25 01:33:37;;;;;;;3.47;2.20;;;18.50;73.60;;;;;;4960593;28;20204;-92
2021/09/25 01:36:03;;;;;;;3.05;2.40;;;18.60;73.60;;;;;;4969298;28;20211;-91
2021/09/25 01:38:28;;;;;;;2.60;1.97;;;18.60;73.50;;;;;;4981314;28;20191;-91
2021/09/25 01:40:54;;;;;;;2.93;1.90;;;18.80;73.00;;;;;;4982789;28;20423;-91
2021/09/25 01:43:20;;;;;;;2.53;2.33;;;18.70;73.00;;;;;;4981982;28;20218;-91
2021/09/25 01:45:46;;;;;;;4.27;2.13;;;18.60;73.20;;;;;;4982032;28;20663;-91
2021/09/25 01:48:12;;;;;;;3.60;2.20;;;18.70;73.40;;;;;;4980640;28;20172;-92
2021/09/25 01:50:39;;;;;;;3.40;2.28;;;18.60;73.40;;;;;;4980400;28;20419;-91
2021/09/25 01:53:06;;;;;;;2.72;1.90;;;18.60;73.60;;;;;;4980819;28;20207;-91
2021/09/25 01:55:32;;;;;;;2.80;2.58;;;18.70;73.50;;;;;;4981283;28;20263;-90
2021/09/25 01:57:58;;;;;;;6.13;1.90;;;18.80;73.30;;;;;;4981487;28;20188;-91
2021/09/25 02:00:24;;;;;;;2.87;1.93;;;18.60;73.40;;;;;;4980313;28;20183;-91
2021/09/25 02:02:52;;;;;;;2.67;2.25;;;18.60;73.60;;;;;;4979951;28;20845;-90
2021/09/25 02:05:18;;;;;;;2.60;2.08;;;18.60;73.70;;;;;;4961323;28;20181;-90
2021/09/25 02:07:44;;;;;;;2.60;1.73;;;18.50;73.90;;;;;;4959000;28;20549;-91
2021/09/25 02:10:11;;;;;;;2.78;1.90;;;18.50;74.10;;;;;;4959216;28;20501;-91
2021/09/25 02:12:37;;;;;;;4.13;2.33;;;18.50;74.10;;;;;;4956545;28;20256;-91
2021/09/25 02:15:09;;;;;;;7.43;1.90;;;18.60;74.00;;;;;;4957229;29;20191;-91
2021/09/25 02:17:35;;;;;;;4.18;3.25;;;18.70;73.30;;;;;;4956858;29;20231;-91
2021/09/25 02:20:01;;;;;;;5.95;2.72;;;18.70;73.40;;;;;;4957093;29;20176;-91
2021/09/25 02:22:27;;;;;;;4.53;2.70;;;18.90;73.30;;;;;;4956406;28;20204;-91
2021/09/25 02:24:53;;;;;;;3.03;2.30;;;19.10;72.40;;;;;;4957046;29;20207;-91
2021/09/25 02:27:18;;;;;;;4.73;2.70;;;19.10;71.90;;;;;;4956288;29;20176;-91
2021/09/25 02:29:44;;;;;;;4.23;2.30;;;18.90;72.00;;;;;;4956233;29;20230;-90
2021/09/25 02:32:11;;;;;;;5.60;2.50;;;18.80;72.50;;;;;;4956470;28;20173;-91
2021/09/25 02:34:37;;;;;;;7.75;3.10;;;18.80;72.50;;;;;;4955911;28;20286;-90
2021/09/25 02:37:04;;;;;;;2.35;1.95;;;18.90;72.40;;;;;;4956403;29;20184;-90
2021/09/25 02:39:30;;;;;;;4.60;3.28;;;18.90;72.20;;;;;;4956340;29;20187;-90
2021/09/25 02:41:56;;;;;;;5.30;3.08;;;18.90;71.90;;;;;;4955634;29;20260;-90
2021/09/25 02:44:22;;;;;;;3.23;2.60;;;18.90;72.00;;;;;;4955349;28;20295;-90
2021/09/25 02:46:48;;;;;;;6.20;3.63;;;18.80;72.10;;;;;;4957198;28;20436;-90
2021/09/25 02:49:19;;;;;;;5.70;3.20;;;18.90;71.90;;;;;;4955996;29;20471;-91
2021/09/25 02:51:45;;;;;;;9.48;3.15;;;18.70;71.90;;;;;;4958016;28;20408;-90
2021/09/25 02:54:11;;;;;;;3.72;3.33;;;18.70;72.10;;;;;;4955513;28;20605;-90
2021/09/25 02:56:37;;;;;;;4.53;3.40;;;18.60;72.30;;;;;;4956274;29;20216;-90
2021/09/25 02:59:03;;;;;;;5.87;3.53;;;18.50;73.40;;;;;;4955814;29;20442;-91
2021/09/25 03:01:30;;;;;;;6.55;3.55;;;18.60;72.80;;;;;;4955858;29;20427;-91
2021/09/25 03:03:55;;;;;;;5.68;4.28;;;18.50;72.90;;;;;;4956477;28;20246;-91
2021/09/25 03:06:22;;;;;;;7.33;3.50;;;18.60;72.70;;;;;;4957030;28;20720;-91
2021/09/25 03:08:48;;;;;;;7.00;4.15;;;18.60;72.80;;;;;;4956630;29;20173;-92
2021/09/25 03:11:14;;;;;;;6.55;3.80;;;18.50;73.00;;;;;;4955465;29;20188;-90
2021/09/25 03:13:40;;;;;;;7.77;4.73;;;18.30;73.40;;;;;;4956667;28;20207;-91
2021/09/25 03:16:10;;;;;;;7.37;5.33;;;18.20;74.10;;;;;;4956522;28;20436;-91
2021/09/25 03:18:36;;;;;;;9.07;4.85;;;18.20;74.20;;;;;;4957170;28;20224;-91
2021/09/25 03:21:02;;;;;;;7.03;5.27;;;18.30;74.30;;;;;;4956588;29;20185;-90
2021/09/25 03:23:28;;;;;;;7.70;5.50;;;18.40;74.00;;;;;;4955317;28;20224;-90
2021/09/25 03:25:53;;;;;;;7.20;5.40;;;18.20;74.00;;;;;;4939838;29;20208;-90
2021/09/25 03:28:19;;;;;;;9.20;5.93;;;18.10;74.40;;;;;;4958254;28;20786;-90
2021/09/25 03:30:45;;;;;;;11.43;6.00;;;18.10;74.70;;;;;;4955547;29;20180;-90
2021/09/25 03:33:11;;;;;;;10.00;5.70;;;18.00;74.80;;;;;;4941907;29;20448;-90
2021/09/25 03:35:36;;;;;;;9.83;5.57;;;18.30;74.60;;;;;;4955157;29;20963;-90
2021/09/25 03:38:02;;;;;;;12.50;7.03;;;18.30;74.20;;;;;;4958250;28;20283;-90
2021/09/25 03:40:29;;;;;;;13.57;6.77;;;18.20;74.20;;;;;;4960859;29;20180;-90
2021/09/25 03:42:55;;;;;;;8.20;6.00;;;18.20;74.10;;;;;;4971345;28;20444;-90
2021/09/25 03:45:59;;;;;;;10.98;6.50;;;18.30;74.20;;;;;;4957369;29;20185;-90
2021/09/25 03:48:25;;;;;;;9.10;7.07;;;18.20;74.00;;;;;;4954903;29;20184;-90
2021/09/25 03:50:53;;;;;;;10.48;6.35;;;18.30;74.00;;;;;;4939476;29;20188;-90
2021/09/25 03:53:20;;;;;;;15.60;6.88;;;18.30;73.80;;;;;;4955125;28;20672;-89
2021/09/25 03:55:46;;;;;;;9.55;6.05;;;18.20;74.00;;;;;;4955924;28;20196;-89
2021/09/25 03:58:12;;;;;;;10.87;8.27;;;18.20;73.90;;;;;;4955161;29;20184;-90
2021/09/25 04:00:42;;;;;;;10.63;5.90;;;18.30;73.80;;;;;;4954867;29;20416;-89
2021/09/25 04:03:09;;;;;;;12.90;7.53;;;18.10;74.00;;;;;;4954651;28;20212;-89
2021/09/25 04:05:35;;;;;;;13.40;7.85;;;17.80;74.50;;;;;;4955388;29;20180;-89
2021/09/25 04:08:01;;;;;;;14.43;8.63;;;17.90;74.90;;;;;;4954770;29;20185;-90
2021/09/25 04:10:27;;;;;;;14.77;9.37;;;17.90;75.50;;;;;;4956920;28;20420;-90
2021/09/25 04:12:53;;;;;;;14.77;8.90;;;17.80;74.90;;;;;;4970368;28;20200;-90
2021/09/25 04:15:20;;;;;;;13.30;8.87;;;17.90;74.90;;;;;;4954722;29;20184;-90
2021/09/25 04:17:45;;;;;;;13.05;8.63;;;17.80;74.70;;;;;;4955320;29;20267;-90
2021/09/25 04:20:12;;;;;;;13.03;8.67;;;17.80;75.00;;;;;;4955990;28;20687;-90
2021/09/25 04:22:37;;;;;;;15.32;8.95;;;17.60;75.30;;;;;;4940667;29;20576;-90
2021/09/25 04:25:04;;;;;;;12.67;9.33;;;17.60;75.70;;;;;;4954240;29;20289;-90
2021/09/25 04:27:29;;;;;;;18.95;8.52;;;17.50;76.00;;;;;;4954793;29;20181;-90
2021/09/25 04:29:58;;;;;;;23.10;11.93;;;17.50;76.10;;;;;;4954567;29;20192;-90
2021/09/25 04:32:24;;;;;;;15.70;8.88;;;17.40;76.20;;;;;;4954656;28;20173;-92
2021/09/25 04:34:51;;;;;;;16.08;9.52;;;17.60;76.30;;;;;;4957742;29;20188;-89
2021/09/25 04:37:16;;;;;;;15.15;9.23;;;17.70;76.00;;;;;;4975378;28;20172;-90
2021/09/25 04:39:42;;;;;;;21.40;10.57;;;17.90;75.50;;;;;;4976889;28;20298;-90
2021/09/25 04:42:08;;;;;;;17.63;10.37;;;18.00;74.70;;;;;;4977942;28;20180;-90
2021/09/25 04:44:34;;;;;;;18.87;10.83;;;18.00;74.40;;;;;;4978695;28;20230;-90
2021/09/25 04:47:00;;;;;;;16.35;10.38;;;17.90;74.60;;;;;;4977968;28;20662;-90
2021/09/25 04:49:26;;;;;;;15.70;9.30;;;17.90;74.60;;;;;;4978734;28;20210;-89
2021/09/25 04:51:52;;;;;;;16.40;10.55;;;17.70;74.90;;;;;;4976161;28;20191;-89
2021/09/25 04:54:17;;;;;;;14.47;10.57;;;17.60;75.10;;;;;;4974926;28;20204;-90
2021/09/25 04:56:43;;;;;;;17.37;10.30;;;17.60;75.50;;;;;;4973713;28;20610;-90
2021/09/25 04:59:09;;;;;;;20.37;12.20;;;17.60;75.40;;;;;;4973550;28;20647;-90
2021/09/25 05:01:35;;;;;;;17.63;10.37;;;17.70;75.40;;;;;;4974955;28;20180;-91
2021/09/25 05:04:02;;;;;;;19.35;10.23;;;17.70;75.30;;;;;;4973543;28;20258;-89
2021/09/25 05:06:32;;;;;;;15.95;10.13;;;17.90;74.90;;;;;;4974203;28;20643;-90
2021/09/25 05:08:57;;;;;;;20.33;11.23;;;17.80;74.70;;;;;;4977262;28;20199;-90
2021/09/25 05:11:25;;;;;;;16.53;10.60;;;17.80;74.70;;;;;;4978257;28;20180;-90
2021/09/25 05:13:51;;;;;;;19.65;10.20;;;17.60;74.80;;;;;;4977951;28;20962;-89
2021/09/25 05:16:17;;;;;;;15.57;10.50;;;17.50;75.40;;;;;;4977703;28;20199;-89
2021/09/25 05:18:43;;;;;;;18.35;12.15;;;17.50;75.80;;;;;;4977268;28;20194;-89
2021/09/25 05:21:09;;;;;;;19.27;10.73;;;17.50;76.00;;;;;;4977271;28;20184;-90
2021/09/25 05:23:35;;;;;;;20.42;11.27;;;17.70;75.80;;;;;;4976561;28;20506;-89
2021/09/25 05:26:12;;;;;;;21.20;11.80;;;17.90;75.10;;;;;;4978371;28;20282;-89
2021/09/25 05:28:38;;;;;;;18.38;10.90;;;17.90;74.90;;;;;;4978449;28;20427;-89
2021/09/25 05:31:03;;;;;;;19.20;11.70;;;17.90;74.50;;;;;;4961232;28;20231;-89
2021/09/25 05:33:29;;;;;;;23.90;12.60;;;17.90;74.70;;;;;;4977102;28;20592;-89
2021/09/25 05:35:55;;;;;;;19.63;11.50;;;17.80;74.70;;;;;;4979422;28;20184;-90
2021/09/25 05:38:20;;;;;;;17.13;11.50;;;17.80;74.50;;;;;;4978179;28;20266;-89
2021/09/25 05:40:46;;;;;;;19.77;12.03;;;17.80;74.60;;;;;;4977098;28;20187;-89
2021/09/25 05:43:12;;;;;;;19.80;12.27;;;17.80;74.70;;;;;;4976694;28;20207;-89
2021/09/25 05:45:38;;;;;;;19.30;12.67;;;17.80;75.50;;;;;;4980763;28;20471;-89
2021/09/25 05:48:03;;;;;;;23.03;13.07;;;17.80;74.90;;;;;;4976830;28;20223;-93
2021/09/25 05:50:29;;;;;;;18.70;12.20;;;17.80;74.80;;;;;;4976661;28;20589;-91
2021/09/25 05:52:55;;;;;;;22.40;14.53;;;17.90;74.90;;;;;;4976721;28;20503;-92
2021/09/25 05:55:21;;;;;;;20.40;11.90;;;17.80;74.80;;;;;;4976303;28;20179;-91
2021/09/25 05:57:47;;;;;;;19.80;12.82;;;18.00;74.50;;;;;;4976794;28;20674;-91
2021/09/25 06:00:14;;;;;;;24.37;12.63;;;17.90;74.20;;;;;;4976021;28;20187;-91
2021/09/25 06:02:41;;;;;;;24.70;13.38;;;18.00;74.20;;;;;;4975734;28;20202;-91
2021/09/25 06:05:08;;;;;;;24.40;12.95;;;18.10;73.90;;;;;;4960543;28;20216;-90
2021/09/25 06:07:34;;;;;;;19.42;12.27;;;18.20;73.60;;;;;;4956849;28;20180;-90
2021/09/25 06:09:59;;;;;;;23.57;13.07;;;18.10;73.40;;;;;;4956839;28;20267;-91
2021/09/25 06:12:25;;;;;;;24.53;13.30;;;17.90;73.80;;;;;;4956636;28;20232;-91
2021/09/25 06:14:53;;;;;;;26.77;13.77;;;17.90;74.30;;;;;;4957710;28;20181;-91
2021/09/25 06:17:20;;;;;;;19.10;12.27;;;18.00;74.30;;;;;;4956960;28;20447;-90
2021/09/25 06:19:46;;;;;;;21.75;12.63;;;18.30;73.70;;;;;;4957888;28;20292;-91
2021/09/25 06:22:12;;;;;;;20.83;12.57;;;18.20;73.20;;;;;;4956628;28;20315;-91
2021/09/25 06:24:38;;;;;;;24.40;12.60;;;18.00;73.60;;;;;;4957809;28;20205;-92
2021/09/25 06:27:04;;;;;;;30.13;12.87;;;18.20;73.70;;;;;;4958255;28;20420;-92
2021/09/25 06:29:30;;;;;;;19.45;12.60;;;18.40;73.00;;;;;;4958045;28;20453;-92
2021/09/25 06:31:55;;;;;;;21.37;12.53;;;18.30;72.90;;;;;;4958040;28;20192;-92
2021/09/25 06:34:23;;;;;;;20.83;11.50;;;18.30;72.90;;;;;;4942504;29;20205;-92
2021/09/25 06:36:49;;;;;;;19.10;12.27;;;18.40;72.80;;;;;;4958305;28;20185;-92
2021/09/25 06:39:15;;;;;;;23.30;12.18;;;18.70;72.30;;;;;;4958398;28;20550;-91
2021/09/25 06:41:41;;;;;;;16.23;11.30;;;18.70;71.90;;;;;;4940665;28;20535;-91
2021/09/25 06:44:07;;;;;;;18.20;10.53;;;18.70;71.50;;;;;;4956130;28;20224;-92
2021/09/25 06:46:33;;;;;;;19.50;12.60;;;18.80;71.40;;;;;;4958574;28;20300;-92
2021/09/25 06:48:59;;;;;;;21.83;11.80;;;18.80;71.00;;;;;;4958503;28;20191;-92
2021/09/25 06:51:24;;;;;;;20.07;10.73;;;18.80;70.90;;;;;;4959760;29;20424;-93
2021/09/25 06:53:50;;;;;;;21.63;12.30;;;18.60;71.00;;;;;;4962558;28;20460;-92
2021/09/25 06:56:16;;;;;;;19.87;11.63;;;18.60;71.40;;;;;;4959644;28;20184;-92
2021/09/25 06:58:41;;;;;;;22.30;13.10;;;18.60;71.40;;;;;;4959726;28;20180;-92
2021/09/25 07:01:08;;;;;;;16.13;11.33;;;18.90;71.10;;;;;;4960508;28;20200;-92
2021/09/25 07:03:33;;;;;;;24.70;13.43;;;18.90;70.50;;;;;;4959703;28;20216;-92
2021/09/25 07:05:59;;;;;;;19.70;12.90;;;19.00;70.50;;;;;;4956645;28;20575;-90
2021/09/25 07:08:25;;;;;;;18.73;11.47;;;19.20;69.90;;;;;;4956352;28;20177;-90
2021/09/25 07:10:51;;;;;;;25.07;13.97;;;19.20;69.40;;;;;;4940632;29;20180;-90
2021/09/25 07:13:17;;;;;;;17.43;11.77;;;19.20;69.60;;;;;;4956436;28;20609;-90
2021/09/25 07:15:44;;;;;;;19.95;11.75;;;19.40;68.90;;;;;;4956380;29;20180;-90
2021/09/25 07:18:10;;;;;;;24.05;11.55;;;19.50;68.70;;;;;;4956624;28;20188;-90
2021/09/25 07:20:36;;;;;;;19.10;13.15;;;19.50;68.30;;;;;;4956370;28;20191;-90
2021/09/25 07:23:02;;;;;;;21.35;11.90;;;19.60;68.20;;;;;;4957269;28;20204;-91
2021/09/25 07:25:29;;;;;;;19.92;12.95;;;19.60;68.00;;;;;;4956807;28;20177;-91
2021/09/25 07:27:55;;;;;;;17.45;11.52;;;19.70;67.30;;;;;;4956995;28;20555;-91
2021/09/25 07:30:21;;;;;;;21.60;13.35;;;19.80;67.00;;;;;;4963954;28;20176;-90
2021/09/25 07:32:47;;;;;;;23.17;12.77;;;19.80;67.20;;;;;;4960061;28;20209;-90
2021/09/25 07:35:15;;;;;;;24.40;12.40;;;19.70;67.30;;;;;;4957422;29;20804;-91
2021/09/25 07:37:42;;;;;;;21.67;13.18;;;19.60;67.70;;;;;;4956879;28;20211;-90
2021/09/25 07:40:09;;;;;;;20.35;12.27;;;19.70;67.80;;;;;;4956511;29;20305;-91
2021/09/25 07:42:35;;;;;;;24.25;12.82;;;19.70;67.20;;;;;;4957523;28;20203;-90
2021/09/25 07:45:00;;;;;;;20.97;11.53;;;19.70;67.30;;;;;;4958380;28;20201;-91
2021/09/25 07:47:26;;;;;;;17.83;11.13;;;19.60;67.60;;;;;;4957344;29;20220;-90
2021/09/25 07:49:53;;;;;;;19.83;11.30;;;19.50;68.00;;;;;;4957729;28;20184;-91
2021/09/25 07:52:19;;;;;;;26.35;11.27;;;19.40;68.50;;;;;;4956587;28;20253;-91
2021/09/25 07:54:44;;;;;;;26.90;13.70;;;19.50;68.50;;;;;;4956269;28;20271;-91
2021/09/25 07:57:10;;;;;;;18.83;12.00;;;19.50;68.00;;;;;;4957317;28;20221;-90
2021/09/25 07:59:36;;;;;;;19.33;12.00;;;19.60;67.90;;;;;;4957690;29;20184;-91
2021/09/25 08:02:02;;;;;;;15.60;10.47;;;19.70;67.80;;;;;;4956384;29;20180;-91
2021/09/25 08:04:28;;;;;;;17.50;11.20;;;19.70;68.00;;;;;;4955974;28;20279;-90
2021/09/25 08:06:54;;;;;;;16.80;9.97;;;19.70;67.80;;;;;;4957521;28;20528;-91
2021/09/25 08:09:23;;;;;;;20.23;11.30;;;19.60;68.30;;;;;;4956840;28;20726;-90
2021/09/25 08:11:50;;;;;;;19.95;11.02;;;19.60;68.60;;;;;;4956048;28;20201;-91
2021/09/25 08:14:21;;;;;;;15.95;10.27;;;19.90;68.30;;;;;;4957606;28;20554;-91
2021/09/25 08:16:47;;;;;;;17.08;11.20;;;20.10;67.90;;;;;;4957916;28;20176;-90
2021/09/25 08:19:13;;;;;;;16.93;11.20;;;20.20;67.70;;;;;;4957301;28;20195;-90
2021/09/25 08:21:38;;;;;;;15.50;9.67;;;20.50;66.40;;;;;;4958011;28;20194;-91
2021/09/25 08:24:04;;;;;;;19.60;11.10;;;20.60;65.60;;;;;;4939615;28;20201;-89
2021/09/25 08:26:31;;;;;;;16.23;10.47;;;20.40;65.40;;;;;;4951864;29;20235;-89
2021/09/25 08:28:57;;;;;;;18.75;12.18;;;20.60;65.90;;;;;;4957520;28;20428;-89
2021/09/25 08:31:22;;;;;;;15.33;10.83;;;20.70;65.70;;;;;;4961934;28;20183;-89
2021/09/25 08:33:48;;;;;;;17.40;10.70;;;20.40;65.50;;;;;;4964929;28;20188;-89
2021/09/25 08:36:14;;;;;;;17.70;11.47;;;20.10;66.30;;;;;;4966224;28;20219;-89
2021/09/25 08:38:39;;;;;;;16.80;10.60;;;19.90;67.10;;;;;;4967446;28;20502;-90
2021/09/25 08:41:06;;;;;;;19.93;10.37;;;19.80;67.70;;;;;;4973026;28;20221;-92
2021/09/25 08:43:31;;;;;;;18.33;9.93;;;19.70;68.10;;;;;;4977618;28;20247;-90
2021/09/25 08:45:59;;;;;;;16.20;8.63;;;19.90;68.50;;;;;;4976879;28;20172;-91
2021/09/25 08:48:27;;;;;;;16.55;9.75;;;20.20;68.20;;;;;;4979208;28;20199;-90
2021/09/25 08:50:53;;;;;;;16.65;11.27;;;20.30;67.80;;;;;;4982028;28;20180;-92
2021/09/25 08:53:19;;;;;;;19.73;11.23;;;20.30;67.30;;;;;;4982019;28;20200;-93
2021/09/25 08:55:45;;;;;;;17.80;9.83;;;20.40;67.10;;;;;;4982442;28;20199;-93
2021/09/25 08:58:11;;;;;;;15.73;10.03;;;20.50;67.00;;;;;;4982552;28;20188;-88
2021/09/25 09:00:40;;;;;;;15.88;10.43;;;20.50;66.80;;;;;;4980357;28;20463;-92
2021/09/25 09:03:15;;;;;;;15.02;10.40;;;20.50;66.80;;;;;;4961100;28;20208;-93
2021/09/25 09:05:41;;;;;;;12.02;8.85;;;20.50;67.00;;;;;;4960877;28;20279;-93
2021/09/25 09:08:07;;;;;;;14.17;8.13;;;20.40;67.30;;;;;;4961384;28;20219;-93
2021/09/25 09:10:36;;;;;;;12.70;7.47;;;20.40;67.60;;;;;;4963657;28;20193;-93
2021/09/25 09:13:05;;;;;;;13.65;8.85;;;20.50;67.10;;;;;;4962910;28;20920;-94
2021/09/25 09:15:32;;;;;;;13.68;8.00;;;20.70;66.80;;;;;;4963945;28;20196;-93
2021/09/25 09:18:01;;;;;;;10.20;6.47;;;20.90;66.10;;;;;;4961765;28;20187;-94
2021/09/25 09:20:31;;;;;;;13.35;6.88;;;20.90;65.90;;;;;;4947380;29;20185;-94
2021/09/25 09:23:18;;;;;;;13.35;7.55;;;20.90;66.20;;;;;;4948560;29;20205;-93
2021/09/25 09:25:43;;;;;;;11.48;7.45;;;20.90;66.30;;;;;;4963106;29;20280;-88
2021/09/25 09:28:20;;;;;;;12.50;7.00;;;20.80;66.00;;;;;;4960502;29;20207;-88
2021/09/25 09:30:51;;;;;;;10.25;6.63;;;21.00;65.90;;;;;;4957914;29;20566;-88
2021/09/25 09:33:40;;;;;;;9.30;6.57;;;21.20;64.80;;;;;;4957607;28;20665;-88
2021/09/25 09:36:15;;;;;;;11.65;5.60;;;21.00;64.20;;;;;;4943671;29;20180;-88
2021/09/25 09:39:17;;;;;;;8.50;5.93;;;21.00;64.50;;;;;;4957553;29;20181;-87
2021/09/25 09:41:49;;;;;;;10.90;5.63;;;21.20;64.80;;;;;;4957546;28;20408;-88
2021/09/25 09:44:19;;;;;;;6.80;5.50;;;21.50;64.50;;;;;;4957530;28;20464;-88
2021/09/25 09:46:48;;;;;;;9.67;6.33;;;21.70;64.20;;;;;;4957634;29;20447;-88
2021/09/25 09:49:27;;;;;;;10.03;6.23;;;22.00;63.80;;;;;;4958783;28;21102;-87
2021/09/25 09:52:08;;;;;;;10.13;4.80;;;22.30;61.90;;;;;;4957323;28;20420;-88
2021/09/25 09:54:45;;;;;;;5.57;4.47;;;22.50;60.60;;;;;;4958221;28;20424;-91
2021/09/25 09:57:17;;;;;;;6.50;5.37;;;22.40;59.20;;;;;;4958914;28;20858;-90
2021/09/25 09:59:47;;;;;;;7.63;5.17;;;22.60;58.10;;;;;;4963789;29;20520;-92
2021/09/25 10:02:14;;;;;;;8.00;4.83;;;22.70;58.50;;;;;;4971372;28;20448;-90
2021/09/25 10:04:40;;;;;;;6.77;4.67;;;23.00;58.60;;;;;;4949503;28;20550;-89
2021/09/25 10:07:07;;;;;;;11.67;4.80;;;23.30;57.10;;;;;;4945606;29;20637;-89
2021/09/25 10:09:38;;;;;;;7.53;4.67;;;23.40;55.80;;;;;;4939662;29;20455;-89
2021/09/25 10:12:07;;;;;;;10.30;5.70;;;23.50;55.50;;;;;;4944633;29;20436;-88
2021/09/25 10:14:38;;;;;;;9.60;5.63;;;23.60;55.30;;;;;;4944487;29;20488;-89
2021/09/25 10:17:09;;;;;;;7.00;5.67;;;23.80;55.30;;;;;;4944339;29;20765;-89
2021/09/25 10:19:36;;;;;;;5.20;4.70;;;23.80;54.50;;;;;;4945045;29;20503;-90
2021/09/25 10:22:17;;;;;;;9.03;5.43;;;23.10;54.00;;;;;;4941619;29;20839;-90
2021/09/25 10:25:01;;;;;;;8.03;4.57;;;23.00;54.90;;;;;;4961038;29;20506;-91
2021/09/25 10:27:31;;;;;;;7.10;4.40;;;23.00;56.40;;;;;;4958778;28;20971;-90
2021/09/25 10:30:00;;;;;;;9.10;4.70;;;23.00;55.40;;;;;;4943642;29;20436;-91
2021/09/25 10:32:40;;;;;;;9.33;4.60;;;23.20;56.30;;;;;;4959131;28;20458;-91
2021/09/25 10:35:19;;;;;;;4.33;3.77;;;23.30;57.30;;;;;;4957947;29;20416;-91
2021/09/25 10:37:51;;;;;;;10.00;4.20;;;23.30;56.00;;;;;;4959884;29;20435;-90
2021/09/25 10:40:18;;;;;;;16.10;5.07;;;23.30;56.60;;;;;;4958128;29;20423;-91
2021/09/25 10:42:45;;;;;;;6.23;3.93;;;23.30;55.50;;;;;;4976294;28;20506;-94
2021/09/25 10:45:27;;;;;;;16.20;4.27;;;23.50;55.50;;;;;;4983446;28;20545;-94
2021/09/25 10:48:09;;;;;;;10.30;5.73;;;23.60;54.10;;;;;;4994252;28;20459;-95
2021/09/25 10:50:39;;;;;;;9.23;3.93;;;23.50;52.50;;;;;;4990136;28;20418;-95
2021/09/25 10:53:10;;;;;;;14.80;4.77;;;23.70;54.30;;;;;;4989578;28;20435;-95
2021/09/25 10:55:38;;;;;;;5.90;3.90;;;24.00;52.60;;;;;;4985978;28;20922;-94
2021/09/25 10:58:18;;;;;;;6.00;4.40;;;23.90;53.80;;;;;;4980450;28;20458;-93
2021/09/25 11:00:51;;;;;;;6.80;4.23;;;24.00;54.00;;;;;;4962497;28;20455;-94
2021/09/25 11:06:32;;;;;;;8.20;3.40;;;24.50;53.10;;;;;;4964101;28;20408;-94
2021/09/25 11:09:28;;;;;;;7.30;4.40;;;24.60;53.00;;;;;;4963249;29;20416;-95
2021/09/25 11:11:56;;;;;;;4.90;4.30;;;24.70;52.80;;;;;;4954934;29;20408;-95
2021/09/25 11:14:27;;;;;;;5.90;4.83;;;24.70;51.00;;;;;;4972173;28;20547;-95
2021/09/25 11:16:58;;;;;;;7.13;4.13;;;24.50;50.90;;;;;;4966679;28;20424;-95
2021/09/25 11:19:29;;;;;;;8.43;4.33;;;24.40;51.70;;;;;;4966042;28;20420;-93
2021/09/25 11:22:16;;;;;;;6.63;4.40;;;24.60;51.80;;;;;;4945992;28;21024;-93
2021/09/25 11:24:52;;;;;;;9.50;4.67;;;24.60;52.00;;;;;;4962117;29;20535;-93
2021/09/25 11:27:24;;;;;;;5.27;4.77;;;24.60;52.30;;;;;;4961241;28;20416;-93
2021/09/25 11:29:59;;;;;;;6.30;5.03;;;24.80;51.60;;;;;;4964876;28;20401;-93
2021/09/25 11:32:27;;;;;;;7.63;4.80;;;25.00;51.30;;;;;;4960947;28;20431;-94
2021/09/25 11:34:55;;;;;;;8.87;5.57;;;24.80;52.80;;;;;;4961384;28;20516;-95
2021/09/25 11:37:21;;;;;;;6.43;4.90;;;24.80;52.50;;;;;;4978819;28;20438;-92
2021/09/25 11:39:48;;;;;;;6.03;3.73;;;25.10;51.60;;;;;;4983734;28;20474;-95
2021/09/25 11:42:22;;;;;;;6.03;4.83;;;25.10;52.10;;;;;;4987371;28;20426;-94
2021/09/25 11:44:50;;;;;;;4.63;4.23;;;25.10;50.40;;;;;;4985669;28;20467;-94
2021/09/25 11:47:25;;;;;;;4.77;4.30;;;24.90;51.40;;;;;;4983959;28;20473;-94
2021/09/25 11:49:51;;;;;;;7.40;4.30;;;24.90;49.00;;;;;;4983995;28;20425;-93
2021/09/25 11:52:18;;;;;;;8.03;4.13;;;24.90;48.90;;;;;;4945431;28;20441;-94
2021/09/25 11:54:44;;;;;;;6.10;4.20;;;24.40;50.40;;;;;;4924609;29;20500;-93
2021/09/25 11:57:23;;;;;;;6.77;4.50;;;24.40;51.60;;;;;;4954542;28;20456;-94
2021/09/25 12:00:04;;;;;;;5.53;3.80;;;24.30;50.80;;;;;;4959272;29;20464;-94
2021/09/25 12:02:39;;;;;;;5.50;3.20;;;24.10;51.00;;;;;;4958771;28;20444;-94
2021/09/25 12:05:07;;;;;;;3.70;3.40;;;24.00;52.10;;;;;;4959229;29;20566;-93
2021/09/25 12:07:44;;;;;;;3.13;2.77;;;24.00;51.90;;;;;;4959061;29;20416;-93
2021/09/25 12:10:19;;;;;;;3.90;2.90;;;23.90;52.60;;;;;;4962055;29;20423;-94
2021/09/25 12:12:45;;;;;;;5.63;3.67;;;23.90;50.80;;;;;;4959983;28;20487;-94
2021/09/25 12:15:12;;;;;;;5.93;4.17;;;23.90;50.10;;;;;;4962170;28;20563;-94
2021/09/25 12:17:38;;;;;;;5.17;4.00;;;23.70;51.70;;;;;;4960210;28;20461;-94
2021/09/25 12:20:20;;;;;;;3.20;2.50;;;23.90;50.30;;;;;;4959870;28;20440;-94
2021/09/25 12:22:46;;;;;;;3.13;2.83;;;23.70;46.50;;;;;;4959610;28;20466;-94
2021/09/25 12:25:13;;;;;;;5.13;2.43;;;23.60;45.80;;;;;;4958111;28;20464;-94
2021/09/25 12:27:42;;;;;;;2.70;2.37;;;23.50;46.90;;;;;;4958546;29;20427;-94
2021/09/25 12:30:10;;;;;;;10.67;2.70;;;23.60;47.30;;;;;;4959160;29;20420;-94
2021/09/25 12:32:49;;;;;;;4.37;3.30;;;23.50;48.60;;;;;;4957713;28;20472;-92
2021/09/25 12:35:19;;;;;;;5.20;3.30;;;23.50;47.80;;;;;;4958090;28;20432;-93
2021/09/25 12:37:47;;;;;;;6.50;2.70;;;23.50;51.00;;;;;;4958944;28;20515;-94
2021/09/25 12:40:13;;;;;;;12.10;3.10;;;23.40;49.00;;;;;;4959960;28;20415;-94
2021/09/25 12:42:40;;;;;;;4.50;3.27;;;23.50;48.10;;;;;;4958771;28;20440;-94
2021/09/25 12:45:09;;;;;;;4.60;3.23;;;23.40;50.80;;;;;;4958724;28;20235;-94